Time;durP1;ratioP1;P1;durP2;ratioP2;P2;SDS_P1;SDS_P2;PMS_P1;PMS_P2;Temp;Humidity;BMP_temperature;BMP_pressure;BME280_temperature;BME280_humidity;BME280_pressure;Samples;Min_cycle;Max_cycle;Signal;HPM_P1;HPM_P2
2022/11/09 00:02:23;;;;;;;;;;;8.80;99.90;;;;;;2604004;54;19934;31
2022/11/09 00:05:00;;;;;;;;;;;9.30;99.90;;;;;;2603769;54;19934;31
2022/11/09 00:07:33;;;;;;;;;;;8.70;99.90;;;;;;2603832;54;19941;31
2022/11/09 00:10:07;;;;;;;;;;;8.60;99.90;;;;;;2622246;46;19935;31
2022/11/09 00:12:41;;;;;;;;;;;9.20;99.90;;;;;;2702307;39;21431;31
2022/11/09 00:15:15;;;;;;;;;;;8.50;99.90;;;;;;2603565;54;19934;31
2022/11/09 00:17:49;;;;;;;;;;;8.50;99.90;;;;;;2603857;54;19942;31
2022/11/09 00:20:26;;;;;;;;;;;8.50;99.90;;;;;;2603554;54;19934;31
2022/11/09 00:22:59;;;;;;;;;;;8.40;99.90;;;;;;2603873;54;20759;31
2022/11/09 00:25:33;;;;;;;;;;;8.40;99.90;;;;;;2603660;54;20774;31
2022/11/09 00:28:07;;;;;;;;;;;8.30;99.90;;;;;;2622238;46;19934;31
2022/11/09 00:30:45;;;;;;;;;;;8.30;99.90;;;;;;2621927;46;19946;31
2022/11/09 00:33:19;;;;;;;;;;;8.30;99.90;;;;;;2603681;54;19957;31
2022/11/09 00:35:57;;;;;;;;;;;8.30;99.90;;;;;;2621863;46;19934;31
2022/11/09 00:38:31;;;;;;;;;;;8.20;99.90;;;;;;2603516;54;19942;31
2022/11/09 00:41:05;;;;;;;;;;;8.20;99.90;;;;;;2603742;54;19934;31
2022/11/09 00:43:39;;;;;;;;;;;9.00;99.90;;;;;;2603581;54;19934;31
2022/11/09 00:46:13;;;;;;;;;;;8.20;99.90;;;;;;2621980;46;19961;31
2022/11/09 00:48:48;;;;;;;;;;;8.20;99.90;;;;;;2622161;46;21429;31
2022/11/09 00:51:25;;;;;;;;;;;8.10;99.90;;;;;;2622119;46;19990;31
2022/11/09 00:54:00;;;;;;;;;;;8.00;99.90;;;;;;2603467;54;20001;31
2022/11/09 00:56:34;;;;;;;;;;;8.00;99.90;;;;;;2773648;31;21388;31
2022/11/09 00:59:10;;;;;;;;;;;8.00;99.90;;;;;;2603634;54;19993;31
2022/11/09 01:01:44;;;;;;;;;;;7.90;99.90;;;;;;2603340;54;20787;31
2022/11/09 01:04:18;;;;;;;;;;;7.90;99.90;;;;;;2603307;54;19935;31
2022/11/09 01:06:55;;;;;;;;;;;7.90;99.90;;;;;;2603489;54;20807;31
2022/11/09 01:09:29;;;;;;;;;;;7.90;99.90;;;;;;2622004;46;19989;31
2022/11/09 01:12:02;;;;;;;;;;;7.90;99.90;;;;;;2603756;54;20791;31
2022/11/09 01:14:37;;;;;;;;;;;7.90;99.90;;;;;;2621889;46;20773;31
2022/11/09 01:17:11;;;;;;;;;;;7.90;99.90;;;;;;2603548;54;20801;31
2022/11/09 01:19:45;;;;;;;;;;;7.90;99.90;;;;;;2603641;54;19946;31
2022/11/09 01:22:23;;;;;;;;;;;7.90;99.90;;;;;;2603462;54;20025;31
2022/11/09 01:24:56;;;;;;;;;;;7.90;99.90;;;;;;2622066;46;19946;31
2022/11/09 01:27:30;;;;;;;;;;;8.80;99.90;;;;;;2621535;46;19934;31
2022/11/09 01:30:04;;;;;;;;;;;7.90;99.90;;;;;;2603296;54;20048;31
2022/11/09 01:32:38;;;;;;;;;;;8.80;99.90;;;;;;2622067;46;19943;31
2022/11/09 01:35:13;;;;;;;;;;;8.80;99.90;;;;;;2603116;54;19934;31
2022/11/09 01:37:49;;;;;;;;;;;7.90;99.90;;;;;;2622235;46;20730;31
2022/11/09 01:40:23;;;;;;;;;;;7.90;99.90;;;;;;2622200;46;20783;31
2022/11/09 01:42:57;;;;;;;;;;;7.90;99.90;;;;;;2603538;54;19961;31
2022/11/09 01:45:31;;;;;;;;;;;8.00;99.90;;;;;;2603361;54;20775;31
2022/11/09 01:48:06;;;;;;;;;;;8.00;99.90;;;;;;2621835;46;20722;31
2022/11/09 01:50:40;;;;;;;;;;;8.00;99.90;;;;;;2603659;54;20798;31
2022/11/09 01:53:17;;;;;;;;;;;8.00;99.90;;;;;;2603263;54;19946;31
2022/11/09 01:55:54;;;;;;;;;;;8.90;99.90;;;;;;2603270;54;19943;31
2022/11/09 01:58:27;;;;;;;;;;;8.20;99.90;;;;;;2603389;54;19938;31
2022/11/09 02:01:01;;;;;;;;;;;8.00;99.90;;;;;;2603287;54;19934;31
2022/11/09 02:03:37;;;;;;;;;;;8.00;99.90;;;;;;2603268;54;19939;31
2022/11/09 02:06:11;;;;;;;;;;;8.10;99.90;;;;;;2603285;54;19957;31
2022/11/09 02:08:48;;;;;;;;;;;8.10;99.90;;;;;;2621869;46;20741;31
2022/11/09 02:11:23;;;;;;;;;;;8.10;99.90;;;;;;2621746;46;20796;31
2022/11/09 02:13:58;;;;;;;;;;;8.10;99.90;;;;;;2603034;54;20807;31
2022/11/09 02:16:32;;;;;;;;;;;8.10;99.90;;;;;;2603166;54;20793;31
2022/11/09 02:19:07;;;;;;;;;;;8.20;99.90;;;;;;2621857;47;20822;31
2022/11/09 02:21:44;;;;;;;;;;;8.20;99.90;;;;;;2603123;54;19943;31
2022/11/09 02:24:18;;;;;;;;;;;8.10;99.90;;;;;;2621996;47;20785;31
2022/11/09 02:26:52;;;;;;;;;;;8.20;99.90;;;;;;2621339;47;19957;31
2022/11/09 02:29:27;;;;;;;;;;;8.10;99.90;;;;;;2603062;54;19942;31
2022/11/09 02:32:01;;;;;;;;;;;8.10;99.90;;;;;;2603145;54;20009;31
2022/11/09 02:34:36;;;;;;;;;;;8.10;99.90;;;;;;2603295;54;20827;31
2022/11/09 02:37:13;;;;;;;;;;;8.10;99.90;;;;;;2621836;47;19935;31
2022/11/09 02:39:46;;;;;;;;;;;8.10;99.90;;;;;;2603287;54;20702;31
2022/11/09 02:42:21;;;;;;;;;;;8.10;99.90;;;;;;2603087;54;20817;31
2022/11/09 02:44:57;;;;;;;;;;;8.00;99.90;;;;;;2603074;54;20777;31
2022/11/09 02:47:29;;;;;;;;;;;8.00;99.90;;;;;;2603075;54;19946;31
2022/11/09 02:50:04;;;;;;;;;;;8.00;99.90;;;;;;2621476;47;19935;31
2022/11/09 02:52:40;;;;;;;;;;;7.90;99.90;;;;;;2603129;54;19990;31
2022/11/09 02:55:15;;;;;;;;;;;7.90;99.90;;;;;;2603712;54;20777;31
2022/11/09 02:57:49;;;;;;;;;;;7.90;99.90;;;;;;2603878;54;20814;31
2022/11/09 03:00:25;;;;;;;;;;;7.90;99.90;;;;;;2603912;54;19946;31
2022/11/09 03:03:00;;;;;;;;;;;8.60;99.90;;;;;;2622433;46;19955;31
2022/11/09 03:05:33;;;;;;;;;;;7.80;99.90;;;;;;2721290;39;20289;31
2022/11/09 03:08:10;;;;;;;;;;;8.70;99.90;;;;;;2603960;54;19942;31
2022/11/09 03:10:45;;;;;;;;;;;7.80;99.90;;;;;;2604030;54;20803;31
2022/11/09 03:13:18;;;;;;;;;;;7.70;99.90;;;;;;2603681;54;20742;31
2022/11/09 03:15:53;;;;;;;;;;;7.70;99.90;;;;;;2622141;46;19934;31
2022/11/09 03:18:27;;;;;;;;;;;8.40;99.90;;;;;;2603939;54;19942;31
2022/11/09 03:21:04;;;;;;;;;;;7.60;99.90;;;;;;2622430;46;19954;31
2022/11/09 03:23:41;;;;;;;;;;;7.60;99.90;;;;;;2603840;54;19961;31
2022/11/09 03:26:15;;;;;;;;;;;7.60;99.90;;;;;;2603655;54;19934;31
2022/11/09 03:28:49;;;;;;;;;;;7.60;99.90;;;;;;2603921;54;20762;31
2022/11/09 03:31:23;;;;;;;;;;;7.50;99.90;;;;;;2603699;54;20751;31
2022/11/09 03:33:58;;;;;;;;;;;7.50;99.90;;;;;;2603908;54;20761;31
2022/11/09 03:36:33;;;;;;;;;;;7.50;99.90;;;;;;2603769;54;20782;31
2022/11/09 03:39:08;;;;;;;;;;;7.40;99.90;;;;;;2622315;46;19965;31
2022/11/09 03:41:42;;;;;;;;;;;7.40;99.90;;;;;;2603696;54;20827;31
2022/11/09 03:44:16;;;;;;;;;;;7.40;99.90;;;;;;2621861;46;19961;31
2022/11/09 03:46:50;;;;;;;;;;;7.40;99.90;;;;;;2603893;54;19996;31
2022/11/09 03:49:27;;;;;;;;;;;7.40;99.90;;;;;;2603725;54;19935;31
2022/11/09 03:52:01;;;;;;;;;;;7.40;99.90;;;;;;2622087;46;19965;31
2022/11/09 03:54:38;;;;;;;;;;;8.00;99.90;;;;;;2603841;54;19935;31
2022/11/09 03:57:10;;;;;;;;;;;7.30;99.90;;;;;;2622261;46;20801;31
2022/11/09 03:59:44;;;;;;;;;;;7.20;99.90;;;;;;2603759;54;19954;31
2022/11/09 04:02:18;;;;;;;;;;;7.20;99.90;;;;;;2603905;54;20875;31
2022/11/09 04:04:53;;;;;;;;;;;7.20;99.90;;;;;;2603541;54;20754;31
2022/11/09 04:07:26;;;;;;;;;;;7.20;99.90;;;;;;2603850;54;19941;31
2022/11/09 04:10:03;;;;;;;;;;;7.20;99.90;;;;;;2622245;46;19940;31
2022/11/09 04:12:37;;;;;;;;;;;7.20;99.90;;;;;;2604043;54;19934;31
2022/11/09 04:15:12;;;;;;;;;;;7.20;99.90;;;;;;2603624;54;20001;31
2022/11/09 04:17:46;;;;;;;;;;;7.10;99.90;;;;;;2603494;54;20832;31
2022/11/09 04:20:20;;;;;;;;;;;7.20;99.90;;;;;;2622041;46;19965;31
2022/11/09 04:22:57;;;;;;;;;;;7.10;99.90;;;;;;2603514;54;19950;31
2022/11/09 04:25:35;;;;;;;;;;;7.10;99.90;;;;;;2622067;46;19935;31
2022/11/09 04:28:08;;;;;;;;;;;7.10;99.90;;;;;;2603858;54;19934;31
2022/11/09 04:30:43;;;;;;;;;;;7.10;99.90;;;;;;2603459;54;19941;31
2022/11/09 04:33:17;;;;;;;;;;;7.10;99.90;;;;;;2603570;54;20747;31
2022/11/09 04:35:51;;;;;;;;;;;7.10;99.90;;;;;;2603416;54;19946;31
2022/11/09 04:38:25;;;;;;;;;;;7.10;99.90;;;;;;2603925;54;20749;31
2022/11/09 04:41:04;;;;;;;;;;;7.10;99.90;;;;;;2603890;54;20819;31
2022/11/09 04:43:36;;;;;;;;;;;7.10;99.90;;;;;;2622345;46;19941;31
2022/11/09 04:46:10;;;;;;;;;;;7.10;99.90;;;;;;2622065;46;19941;31
2022/11/09 04:48:44;;;;;;;;;;;7.00;99.90;;;;;;2603777;54;19939;31
2022/11/09 04:51:18;;;;;;;;;;;7.00;99.90;;;;;;2603486;54;19990;31
2022/11/09 04:53:52;;;;;;;;;;;7.00;99.90;;;;;;2603785;54;19938;31
2022/11/09 04:56:29;;;;;;;;;;;7.00;99.90;;;;;;2603577;54;19943;31
2022/11/09 04:59:03;;;;;;;;;;;7.00;99.90;;;;;;2621985;46;20803;31
2022/11/09 05:01:37;;;;;;;;;;;7.00;99.90;;;;;;2603383;54;19935;31
2022/11/09 05:04:11;;;;;;;;;;;7.00;99.90;;;;;;2603547;54;19934;31
2022/11/09 05:06:45;;;;;;;;;;;7.00;99.90;;;;;;2603586;54;19945;31
2022/11/09 05:09:19;;;;;;;;;;;7.00;99.90;;;;;;2622015;46;19942;31
2022/11/09 05:11:56;;;;;;;;;;;7.00;99.90;;;;;;2603528;54;19941;31
2022/11/09 05:14:29;;;;;;;;;;;7.00;99.90;;;;;;2621968;46;20809;31
2022/11/09 05:17:02;;;;;;;;;;;7.00;99.90;;;;;;2621949;46;20484;31
2022/11/09 05:19:35;;;;;;;;;;;7.00;99.90;;;;;;2603623;54;20708;31
2022/11/09 05:24:55;;;;;;;;;;;7.00;99.90;;;;;;2622064;46;19993;31
2022/11/09 05:27:32;;;;;;;;;;;7.00;99.90;;;;;;2603528;54;20776;31
2022/11/09 05:30:07;;;;;;;;;;;7.00;99.90;;;;;;2603471;54;20040;31
2022/11/09 05:32:42;;;;;;;;;;;7.00;99.90;;;;;;2621877;46;20018;31
2022/11/09 05:35:16;;;;;;;;;;;7.00;99.90;;;;;;2603631;54;19986;31
2022/11/09 05:37:50;;;;;;;;;;;7.00;99.90;;;;;;2603203;54;20029;31
2022/11/09 05:40:24;;;;;;;;;;;6.90;99.90;;;;;;2621807;46;19935;31
2022/11/09 05:43:02;;;;;;;;;;;6.90;99.90;;;;;;2621954;46;20009;31
2022/11/09 05:45:37;;;;;;;;;;;7.00;99.90;;;;;;2603445;54;19935;31
2022/11/09 05:48:16;;;;;;;;;;;7.00;99.90;;;;;;2621840;46;20402;31
2022/11/09 05:50:50;;;;;;;;;;;7.00;99.90;;;;;;2603510;54;20787;31
2022/11/09 05:53:28;;;;;;;;;;;7.00;99.90;;;;;;2603334;54;20781;31
2022/11/09 05:56:03;;;;;;;;;;;7.00;99.90;;;;;;2621870;46;19934;31
2022/11/09 05:58:38;;;;;;;;;;;7.00;99.90;;;;;;2621979;46;20773;31
2022/11/09 06:01:13;;;;;;;;;;;7.00;99.90;;;;;;2603296;54;20771;31
2022/11/09 06:03:47;;;;;;;;;;;7.00;99.90;;;;;;2603085;54;20667;31
2022/11/09 06:06:24;;;;;;;;;;;7.00;99.90;;;;;;2603415;54;19941;31
2022/11/09 06:08:58;;;;;;;;;;;7.00;99.90;;;;;;2603174;54;19989;31
2022/11/09 06:11:30;;;;;;;;;;;7.00;99.90;;;;;;2603350;54;19989;31
2022/11/09 06:14:07;;;;;;;;;;;7.00;99.90;;;;;;2602475;54;19942;31
2022/11/09 06:16:43;;;;;;;;;;;7.00;99.90;;;;;;2621843;47;19999;31
2022/11/09 06:19:20;;;;;;;;;;;7.00;99.90;;;;;;2604226;47;19997;31
2022/11/09 06:21:56;;;;;;;;;;;7.00;99.90;;;;;;2622077;47;20761;31
2022/11/09 06:24:30;;;;;;;;;;;7.00;99.90;;;;;;2603223;54;19985;31
2022/11/09 06:27:05;;;;;;;;;;;7.00;99.90;;;;;;2621595;47;19934;31
2022/11/09 06:29:40;;;;;;;;;;;7.00;99.90;;;;;;2622098;46;19935;31
2022/11/09 06:32:15;;;;;;;;;;;7.00;99.90;;;;;;2622338;46;20683;31
2022/11/09 06:34:50;;;;;;;;;;;7.00;99.90;;;;;;2604053;54;20776;31
2022/11/09 06:37:24;;;;;;;;;;;7.00;99.90;;;;;;2622368;46;19942;31
2022/11/09 06:39:59;;;;;;;;;;;7.00;99.90;;;;;;2622381;46;19934;31
2022/11/09 06:42:34;;;;;;;;;;;7.00;99.90;;;;;;2622764;46;20693;31
2022/11/09 06:45:13;;;;;;;;;;;7.10;99.90;;;;;;2622713;46;20767;31
2022/11/09 06:47:47;;;;;;;;;;;7.10;99.90;;;;;;2604139;54;19941;31
2022/11/09 06:50:21;;;;;;;;;;;7.10;99.90;;;;;;2622523;46;19934;31
2022/11/09 06:52:57;;;;;;;;;;;7.10;99.90;;;;;;2603882;54;20005;31
2022/11/09 06:55:34;;;;;;;;;;;7.10;99.90;;;;;;2603965;54;20701;31
2022/11/09 06:58:09;;;;;;;;;;;7.10;99.90;;;;;;2604111;54;19941;31
2022/11/09 07:00:45;;;;;;;;;;;7.20;99.90;;;;;;2604247;54;21137;31
2022/11/09 07:03:21;;;;;;;;;;;7.20;99.90;;;;;;2622313;46;19989;31
2022/11/09 07:05:59;;;;;;;;;;;7.30;99.90;;;;;;2604073;54;20778;31
2022/11/09 07:08:33;;;;;;;;;;;7.40;99.90;;;;;;2605272;46;20738;31
2022/11/09 07:11:08;;;;;;;;;;;7.50;99.90;;;;;;2603936;54;19934;31
2022/11/09 07:13:45;;;;;;;;;;;7.70;99.90;;;;;;2603085;54;19949;31
2022/11/09 07:16:27;;;;;;;;;;;7.80;99.90;;;;;;2603848;54;20799;31
2022/11/09 07:19:01;;;;;;;;;;;8.00;99.90;;;;;;2603823;54;19934;31
2022/11/09 07:21:36;;;;;;;;;;;8.20;99.90;;;;;;2603852;54;19934;31
2022/11/09 07:24:10;;;;;;;;;;;8.50;99.90;;;;;;2622424;46;20006;31
2022/11/09 07:26:44;;;;;;;;;;;8.70;99.90;;;;;;2603894;54;19941;31
2022/11/09 07:29:17;;;;;;;;;;;9.10;99.90;;;;;;2603713;54;20042;31
2022/11/09 07:31:54;;;;;;;;;;;9.10;99.90;;;;;;2603752;54;19934;31
2022/11/09 07:34:28;;;;;;;;;;;9.20;99.90;;;;;;2603962;54;19946;31
2022/11/09 07:37:04;;;;;;;;;;;9.20;99.90;;;;;;2603843;54;19960;31
2022/11/09 07:39:40;;;;;;;;;;;9.40;99.90;;;;;;2603468;54;19943;31
2022/11/09 07:42:14;;;;;;;;;;;9.80;99.90;;;;;;2603812;54;19941;31
2022/11/09 07:44:49;;;;;;;;;;;10.10;99.90;;;;;;2603876;54;19939;31
2022/11/09 07:47:25;;;;;;;;;;;10.40;99.90;;;;;;2603772;54;19939;31
2022/11/09 07:50:00;;;;;;;;;;;10.70;99.90;;;;;;2603800;54;19935;31
2022/11/09 07:52:42;;;;;;;;;;;10.90;99.90;;;;;;2603846;54;20033;31
2022/11/09 07:55:16;;;;;;;;;;;11.10;99.90;;;;;;2603800;54;19960;31
2022/11/09 07:57:51;;;;;;;;;;;11.30;99.90;;;;;;2603806;54;19942;31
2022/11/09 08:00:26;;;;;;;;;;;11.50;99.90;;;;;;2603694;54;20828;31
2022/11/09 08:03:15;;;;;;;;;;;11.60;99.90;;;;;;2603772;54;19949;31
2022/11/09 08:05:54;;;;;;;;;;;11.90;99.90;;;;;;2603680;54;20689;31
2022/11/09 08:08:29;;;;;;;;;;;12.00;99.90;;;;;;2603856;54;19943;31
2022/11/09 08:11:04;;;;;;;;;;;12.10;99.90;;;;;;2603400;54;19934;31
2022/11/09 08:13:38;;;;;;;;;;;12.10;99.90;;;;;;2603669;54;20792;31
2022/11/09 08:16:14;;;;;;;;;;;12.20;99.90;;;;;;2603550;54;20025;31
2022/11/09 08:18:48;;;;;;;;;;;12.30;99.90;;;;;;2622375;46;19934;31
2022/11/09 08:21:26;;;;;;;;;;;12.50;99.90;;;;;;2603952;54;19934;31
2022/11/09 08:23:59;;;;;;;;;;;12.70;99.90;;;;;;2603938;54;19934;31
2022/11/09 08:26:34;;;;;;;;;;;12.90;99.90;;;;;;2622449;46;19989;31
2022/11/09 08:29:12;;;;;;;;;;;13.10;99.90;;;;;;2622183;46;19941;31
2022/11/09 08:31:46;;;;;;;;;;;13.20;99.90;;;;;;2603842;54;19941;31
2022/11/09 08:34:21;;;;;;;;;;;13.30;99.90;;;;;;2622128;46;20028;31
2022/11/09 08:37:01;;;;;;;;;;;13.30;99.90;;;;;;2603549;54;20547;31
2022/11/09 08:39:34;;;;;;;;;;;13.40;99.90;;;;;;2622268;46;19935;31
2022/11/09 08:42:09;;;;;;;;;;;13.30;99.90;;;;;;2603894;54;19942;31
2022/11/09 08:44:43;;;;;;;;;;;13.20;99.90;;;;;;2603509;54;19935;31
2022/11/09 08:47:17;;;;;;;;;;;13.20;99.90;;;;;;2622007;46;19934;31
2022/11/09 08:49:52;;;;;;;;;;;13.10;99.90;;;;;;2603703;54;19942;31
2022/11/09 08:52:30;;;;;;;;;;;13.00;99.90;;;;;;2622162;46;19941;31
2022/11/09 08:55:05;;;;;;;;;;;12.90;99.90;;;;;;2622188;46;19934;31
2022/11/09 08:57:40;;;;;;;;;;;12.90;99.90;;;;;;2603664;54;19935;31
2022/11/09 09:00:17;;;;;;;;;;;12.90;99.90;;;;;;2603513;54;20799;31
2022/11/09 09:02:51;;;;;;;;;;;12.90;99.90;;;;;;2603781;54;20048;31
2022/11/09 09:05:25;;;;;;;;;;;13.00;99.90;;;;;;2622135;46;19938;31
2022/11/09 09:07:59;;;;;;;;;;;12.90;99.90;;;;;;2621933;46;19934;31
2022/11/09 09:10:35;;;;;;;;;;;12.90;99.90;;;;;;2603695;54;20001;31
2022/11/09 09:13:07;;;;;;;;;;;12.90;99.90;;;;;;2622207;46;19941;31
2022/11/09 09:15:42;;;;;;;;;;;12.90;99.90;;;;;;2622263;46;19989;31
2022/11/09 09:18:18;;;;;;;;;;;12.90;99.90;;;;;;2603334;54;20788;31
2022/11/09 09:20:53;;;;;;;;;;;12.90;99.90;;;;;;2603647;54;20769;31
2022/11/09 09:23:29;;;;;;;;;;;12.90;99.90;;;;;;2603505;54;19935;31
2022/11/09 09:26:06;;;;;;;;;;;12.90;99.90;;;;;;2603684;54;20021;31
2022/11/09 09:28:42;;;;;;;;;;;12.90;99.90;;;;;;2603536;54;19934;31
2022/11/09 09:31:18;;;;;;;;;;;12.90;99.90;;;;;;2603498;54;19962;31
2022/11/09 09:33:53;;;;;;;;;;;12.90;99.90;;;;;;2622145;46;20794;31
2022/11/09 09:36:28;;;;;;;;;;;12.90;99.90;;;;;;2617656;46;20008;31
2022/11/09 09:39:04;;;;;;;;;;;13.00;99.90;;;;;;2621820;46;20062;31
2022/11/09 09:41:47;;;;;;;;;;;12.90;99.90;;;;;;2603504;54;19946;31
2022/11/09 09:44:25;;;;;;;;;;;12.90;99.90;;;;;;2603380;54;19997;31
2022/11/09 09:47:02;;;;;;;;;;;12.90;99.90;;;;;;2603431;54;19939;31
2022/11/09 09:49:37;;;;;;;;;;;12.90;99.90;;;;;;2621774;46;19941;31
2022/11/09 09:52:15;;;;;;;;;;;12.90;99.90;;;;;;2603320;54;20816;31
2022/11/09 09:54:52;;;;;;;;;;;12.90;99.90;;;;;;2603264;54;20847;31
2022/11/09 09:57:30;;;;;;;;;;;12.90;99.90;;;;;;2603415;54;20797;31
2022/11/09 10:00:17;;;;;;;;;;;12.90;99.90;;;;;;2621721;46;20081;31
2022/11/09 10:02:56;;;;;;;;;;;12.90;99.90;;;;;;2621623;46;19944;31
2022/11/09 10:05:30;;;;;;;;;;;12.90;99.90;;;;;;2621599;46;20762;31
2022/11/09 10:08:06;;;;;;;;;;;12.90;99.90;;;;;;2603342;54;19934;31
2022/11/09 10:10:44;;;;;;;;;;;12.90;99.90;;;;;;2603419;54;19943;31
2022/11/09 10:13:28;;;;;;;;;;;12.90;99.90;;;;;;2612147;46;19946;31
2022/11/09 10:16:03;;;;;;;;;;;12.90;99.90;;;;;;2603305;54;19946;31
2022/11/09 10:18:42;;;;;;;;;;;12.90;99.90;;;;;;2603261;54;19960;31
2022/11/09 10:21:29;;;;;;;;;;;12.90;99.90;;;;;;2603298;54;19941;31
2022/11/09 10:24:08;;;;;;;;;;;12.90;99.90;;;;;;2603440;54;20754;31
2022/11/09 10:26:45;;;;;;;;;;;13.00;99.90;;;;;;2603354;54;19965;31
2022/11/09 10:29:22;;;;;;;;;;;13.00;99.90;;;;;;2603365;54;20000;31
2022/11/09 10:32:12;;;;;;;;;;;13.10;99.90;;;;;;2603083;54;19942;31
2022/11/09 10:34:49;;;;;;;;;;;13.20;99.90;;;;;;2603424;54;19935;31
2022/11/09 10:37:25;;;;;;;;;;;13.40;99.90;;;;;;2603039;54;20734;31
2022/11/09 10:40:00;;;;;;;;;;;13.50;99.90;;;;;;2602819;54;19934;31
2022/11/09 10:42:54;;;;;;;;;;;13.50;99.90;;;;;;2603365;54;20746;31
2022/11/09 10:45:49;;;;;;;;;;;13.60;99.90;;;;;;2603367;54;20793;31
2022/11/09 10:48:45;;;;;;;;;;;13.70;99.90;;;;;;2603443;54;19946;31
2022/11/09 10:51:45;;;;;;;;;;;13.70;99.90;;;;;;2603268;54;19935;31
2022/11/09 10:54:39;;;;;;;;;;;13.80;99.90;;;;;;2603407;54;19942;31
2022/11/09 10:57:31;;;;;;;;;;;13.80;99.90;;;;;;2603319;54;19935;31
2022/11/09 11:00:24;;;;;;;;;;;13.90;99.90;;;;;;2603231;54;19935;31
2022/11/09 11:03:20;;;;;;;;;;;14.00;99.90;;;;;;2603328;54;19935;31
2022/11/09 11:06:16;;;;;;;;;;;14.00;99.90;;;;;;2603218;54;19934;31
2022/11/09 11:09:18;;;;;;;;;;;14.10;99.90;;;;;;2603436;54;19934;31
2022/11/09 11:12:15;;;;;;;;;;;14.20;99.90;;;;;;2603219;54;19934;31
2022/11/09 11:15:17;;;;;;;;;;;14.20;99.90;;;;;;2603669;54;19957;31
2022/11/09 11:18:15;;;;;;;;;;;14.20;99.90;;;;;;2604094;54;19946;31
2022/11/09 11:21:15;;;;;;;;;;;14.30;99.90;;;;;;2604047;54;19936;31
2022/11/09 11:24:13;;;;;;;;;;;14.40;99.90;;;;;;2603974;54;19954;31
2022/11/09 11:27:06;;;;;;;;;;;14.40;99.90;;;;;;2604062;54;20742;31
2022/11/09 11:30:05;;;;;;;;;;;14.40;99.90;;;;;;2603956;54;20742;31
2022/11/09 11:32:57;;;;;;;;;;;14.50;99.90;;;;;;2604040;54;19994;31
2022/11/09 11:35:52;;;;;;;;;;;14.50;99.90;;;;;;2603842;54;20710;31
2022/11/09 11:38:49;;;;;;;;;;;14.60;99.90;;;;;;2603801;54;19943;31
2022/11/09 11:41:59;;;;;;;;;;;14.80;99.90;;;;;;2604079;54;19935;31
2022/11/09 11:44:54;;;;;;;;;;;14.90;99.90;;;;;;2603900;54;20785;31
2022/11/09 11:48:13;;;;;;;;;;;15.00;99.90;;;;;;2603935;54;19943;31
2022/11/09 11:51:07;;;;;;;;;;;15.10;99.90;;;;;;2603867;54;20770;31
2022/11/09 12:00:06;;;;;;;;;;;15.10;99.90;;;;;;2603767;54;20726;31
2022/11/09 12:03:07;;;;;;;;;;;15.10;99.90;;;;;;2603942;54;20745;31
2022/11/09 12:09:22;;;;;;;;;;;15.10;99.90;;;;;;2603775;54;20749;31
2022/11/09 12:12:18;;;;;;;;;;;15.10;99.90;;;;;;2603890;54;20786;31
2022/11/09 12:15:23;;;;;;;;;;;15.10;99.90;;;;;;2603852;54;19934;31
2022/11/09 12:18:19;;;;;;;;;;;15.10;99.90;;;;;;2603829;54;19935;31
2022/11/09 12:21:19;;;;;;;;;;;15.10;99.90;;;;;;2603939;54;19940;31
2022/11/09 12:24:15;;;;;;;;;;;15.10;99.90;;;;;;2603864;54;19938;31
2022/11/09 12:27:12;;;;;;;;;;;15.10;99.90;;;;;;2603427;54;20742;31
2022/11/09 12:33:18;;;;;;;;;;;15.10;99.90;;;;;;2603838;54;20013;31
2022/11/09 12:36:16;;;;;;;;;;;15.10;99.90;;;;;;2603660;54;19934;31
2022/11/09 12:39:10;;;;;;;;;;;15.10;99.90;;;;;;2603903;54;19935;31
2022/11/09 12:42:05;;;;;;;;;;;15.00;99.90;;;;;;2603809;54;19961;31
2022/11/09 12:45:01;;;;;;;;;;;14.90;99.90;;;;;;2603705;54;19957;31
2022/11/09 12:47:56;;;;;;;;;;;14.80;99.90;;;;;;2603810;54;19934;31
2022/11/09 12:50:53;;;;;;;;;;;14.80;99.90;;;;;;2603669;54;19997;31
2022/11/09 12:53:45;;;;;;;;;;;14.70;99.90;;;;;;2603823;54;19934;31
2022/11/09 12:56:42;;;;;;;;;;;14.70;99.90;;;;;;2603711;54;19997;31
2022/11/09 12:59:38;;;;;;;;;;;14.70;99.90;;;;;;2603529;54;20778;31
2022/11/09 13:02:32;;;;;;;;;;;14.70;99.90;;;;;;2603836;54;19935;31
2022/11/09 13:05:30;;;;;;;;;;;14.70;99.90;;;;;;2603827;54;19946;31
2022/11/09 13:08:29;;;;;;;;;;;14.70;99.90;;;;;;2603690;54;19935;31
2022/11/09 13:11:22;;;;;;;;;;;14.70;99.90;;;;;;2603702;54;19930;31
2022/11/09 13:14:30;;;;;;;;;;;14.70;99.90;;;;;;2603831;54;20766;31
2022/11/09 13:20:26;;;;;;;;;;;14.70;99.90;;;;;;2603652;54;19997;31
2022/11/09 13:23:41;;;;;;;;;;;14.70;99.90;;;;;;2603569;54;19935;31
2022/11/09 13:26:58;;;;;;;;;;;14.70;99.90;;;;;;2603697;54;19934;31
2022/11/09 13:29:51;;;;;;;;;;;14.70;99.90;;;;;;2603762;54;19934;31
2022/11/09 13:33:02;;;;;;;;;;;14.70;99.90;;;;;;2603520;54;20790;31
2022/11/09 13:36:15;;;;;;;;;;;14.60;99.90;;;;;;2702392;39;20914;31
2022/11/09 13:39:22;;;;;;;;;;;14.60;99.90;;;;;;2603450;54;19934;31
2022/11/09 13:42:31;;;;;;;;;;;14.50;99.90;;;;;;2603436;54;20726;31
2022/11/09 13:45:28;;;;;;;;;;;14.50;99.90;;;;;;2603546;54;19935;31
2022/11/09 13:48:32;;;;;;;;;;;14.40;99.90;;;;;;2603666;54;20817;31
2022/11/09 13:51:26;;;;;;;;;;;14.30;99.90;;;;;;2603504;54;19962;31
2022/11/09 13:54:31;;;;;;;;;;;14.30;99.90;;;;;;2603399;54;19935;31
2022/11/09 13:57:24;;;;;;;;;;;14.20;99.90;;;;;;2603576;54;20821;31
2022/11/09 14:00:22;;;;;;;;;;;14.20;99.90;;;;;;2603629;54;19934;31
2022/11/09 14:03:22;;;;;;;;;;;14.10;99.90;;;;;;2603554;54;19958;31
2022/11/09 14:06:15;;;;;;;;;;;14.00;99.90;;;;;;2603559;54;19934;31
2022/11/09 14:09:09;;;;;;;;;;;13.90;99.90;;;;;;2773543;31;20369;31
2022/11/09 14:12:08;;;;;;;;;;;13.90;99.90;;;;;;2603409;54;19935;31
2022/11/09 14:15:08;;;;;;;;;;;13.80;99.90;;;;;;2603434;54;19939;31
2022/11/09 14:18:07;;;;;;;;;;;13.80;99.90;;;;;;2603460;54;19934;31
2022/11/09 14:21:03;;;;;;;;;;;13.70;99.90;;;;;;2701916;39;20353;31
2022/11/09 14:23:56;;;;;;;;;;;13.60;99.90;;;;;;2603340;54;20772;31
2022/11/09 14:27:04;;;;;;;;;;;13.60;99.90;;;;;;2603520;54;20844;31
2022/11/09 14:29:57;;;;;;;;;;;13.50;99.90;;;;;;2603402;54;20735;31
2022/11/09 14:32:50;;;;;;;;;;;13.40;99.90;;;;;;2603460;54;20411;31
2022/11/09 14:35:45;;;;;;;;;;;13.40;99.90;;;;;;2603155;54;20754;31
2022/11/09 14:38:43;;;;;;;;;;;13.30;99.90;;;;;;2603281;54;20833;31
2022/11/09 14:41:35;;;;;;;;;;;13.30;99.90;;;;;;2603331;54;19935;31
2022/11/09 14:44:31;;;;;;;;;;;13.20;99.90;;;;;;2603277;54;20785;31
2022/11/09 14:47:26;;;;;;;;;;;13.10;99.90;;;;;;2603436;54;20794;31
2022/11/09 14:50:19;;;;;;;;;;;13.10;99.90;;;;;;2603842;54;19935;31
2022/11/09 14:53:21;;;;;;;;;;;13.00;99.90;;;;;;2604174;54;19935;31
2022/11/09 14:56:14;;;;;;;;;;;12.90;99.90;;;;;;2604058;54;19943;31
2022/11/09 14:59:06;;;;;;;;;;;12.90;99.90;;;;;;2604232;54;20714;31
2022/11/09 15:01:58;;;;;;;;;;;12.90;99.90;;;;;;2603952;54;19934;31
2022/11/09 15:04:54;;;;;;;;;;;12.80;99.90;;;;;;2604152;54;19935;31
2022/11/09 15:07:47;;;;;;;;;;;12.70;99.90;;;;;;2603928;54;19990;31
2022/11/09 15:10:42;;;;;;;;;;;12.70;99.90;;;;;;2604036;54;19942;31
2022/11/09 15:13:35;;;;;;;;;;;12.60;99.90;;;;;;2603779;54;19943;31
2022/11/09 15:16:28;;;;;;;;;;;12.60;99.90;;;;;;2603988;54;19934;31
2022/11/09 15:19:23;;;;;;;;;;;12.60;99.90;;;;;;2604073;54;19935;31
2022/11/09 15:22:30;;;;;;;;;;;12.50;99.90;;;;;;2603966;54;20036;31
2022/11/09 15:25:24;;;;;;;;;;;12.50;99.90;;;;;;2603857;54;20740;31
2022/11/09 15:28:23;;;;;;;;;;;12.40;99.90;;;;;;2604052;54;20748;31
2022/11/09 15:31:17;;;;;;;;;;;12.40;99.90;;;;;;2603964;54;20809;31
2022/11/09 15:34:17;;;;;;;;;;;12.40;99.90;;;;;;2604003;54;20027;31
2022/11/09 15:37:20;;;;;;;;;;;12.30;99.90;;;;;;2604066;54;20718;31
2022/11/09 15:40:13;;;;;;;;;;;12.30;99.90;;;;;;2604007;54;20817;31
2022/11/09 15:43:05;;;;;;;;;;;12.30;99.90;;;;;;2603921;54;19934;31
2022/11/09 15:46:00;;;;;;;;;;;12.30;99.90;;;;;;2603982;54;20089;31
2022/11/09 15:48:53;;;;;;;;;;;12.30;99.90;;;;;;2603939;54;20746;31
2022/11/09 15:51:45;;;;;;;;;;;12.20;99.90;;;;;;2604020;54;19935;31
2022/11/09 15:54:37;;;;;;;;;;;12.20;99.90;;;;;;2603945;54;20756;31
2022/11/09 15:57:36;;;;;;;;;;;12.20;99.90;;;;;;2603929;54;19998;31
2022/11/09 16:00:29;;;;;;;;;;;12.20;99.90;;;;;;2603962;54;20728;31
2022/11/09 16:03:24;;;;;;;;;;;12.20;99.90;;;;;;2603808;54;20733;31
2022/11/09 16:06:21;;;;;;;;;;;12.20;99.90;;;;;;2702458;39;20399;31
2022/11/09 16:09:13;;;;;;;;;;;12.10;99.90;;;;;;2603917;54;19947;31
2022/11/09 16:12:05;;;;;;;;;;;12.10;99.90;;;;;;2603784;54;19934;31
2022/11/09 16:14:58;;;;;;;;;;;12.00;99.90;;;;;;2603706;54;19934;31
2022/11/09 16:17:50;;;;;;;;;;;12.00;99.90;;;;;;2604005;54;19993;31
2022/11/09 16:20:45;;;;;;;;;;;12.00;99.90;;;;;;2603677;54;20728;31
2022/11/09 16:23:38;;;;;;;;;;;11.90;99.90;;;;;;2603728;54;20764;31